Time;durP1;ratioP1;P1;durP2;ratioP2;P2;SDS_P1;SDS_P2;PMS_P1;PMS_P2;Temp;Humidity;BMP_temperature;BMP_pressure;BME280_temperature;BME280_humidity;BME280_pressure;Samples;Min_cycle;Max_cycle;Signal;HPM_P1;HPM_P2
2023/06/09 00:00:40;;;;;;;13.07;12.13;;;18.00;35.70;;;;;;4967873;28;20599;-60
2023/06/09 00:03:07;;;;;;;13.57;12.87;;;18.10;35.30;;;;;;4972333;28;20634;-61
2023/06/09 00:05:33;;;;;;;13.33;12.63;;;18.10;34.90;;;;;;4972809;28;20745;-60
2023/06/09 00:08:00;;;;;;;13.20;12.50;;;18.20;34.60;;;;;;4971415;28;20477;-61
2023/06/09 00:10:26;;;;;;;12.80;12.07;;;18.20;34.80;;;;;;4975122;28;20496;-61
2023/06/09 00:12:54;;;;;;;13.40;12.70;;;18.20;34.80;;;;;;4972719;28;20781;-53
2023/06/09 00:15:20;;;;;;;13.03;12.33;;;18.20;34.00;;;;;;4971274;28;20414;-54
2023/06/09 00:17:47;;;;;;;14.17;13.10;;;18.20;33.20;;;;;;4975293;28;20469;-54
2023/06/09 00:20:14;;;;;;;12.63;12.00;;;18.20;33.30;;;;;;4974662;28;20414;-53
2023/06/09 00:22:42;;;;;;;14.33;13.50;;;18.20;33.20;;;;;;4973877;28;20441;-60
2023/06/09 00:25:12;;;;;;;14.17;13.27;;;18.20;33.20;;;;;;4974867;28;20780;-60
2023/06/09 00:27:39;;;;;;;14.20;13.37;;;18.20;33.30;;;;;;4974587;28;20422;-60
2023/06/09 00:30:07;;;;;;;12.77;12.07;;;18.30;33.00;;;;;;4974558;28;20419;-60
2023/06/09 00:32:33;;;;;;;13.57;12.57;;;18.30;32.90;;;;;;4973937;28;20447;-61
2023/06/09 00:34:59;;;;;;;14.87;14.07;;;18.30;32.90;;;;;;4974455;28;20516;-60
2023/06/09 00:37:24;;;;;;;14.13;13.33;;;18.30;33.00;;;;;;4974377;28;20564;-60
2023/06/09 00:39:50;;;;;;;13.97;13.20;;;18.30;32.80;;;;;;4974130;28;20277;-60
2023/06/09 00:42:15;;;;;;;13.03;12.33;;;18.30;33.00;;;;;;4973738;28;20272;-59
2023/06/09 00:44:41;;;;;;;13.43;12.53;;;18.30;32.90;;;;;;4974192;28;20353;-60
2023/06/09 00:47:07;;;;;;;14.40;13.60;;;18.30;33.20;;;;;;4958134;28;20179;-60
2023/06/09 00:49:34;;;;;;;13.53;12.73;;;18.20;33.20;;;;;;4974136;28;20566;-60
2023/06/09 00:52:00;;;;;;;13.87;13.17;;;18.30;33.20;;;;;;4973650;28;20923;-60
2023/06/09 00:54:26;;;;;;;14.27;13.57;;;18.20;33.50;;;;;;4974035;28;20423;-60
2023/06/09 00:56:52;;;;;;;14.70;13.90;;;17.90;34.60;;;;;;4975205;28;20456;-60
2023/06/09 00:59:19;;;;;;;13.80;12.90;;;17.70;35.60;;;;;;4973790;28;20930;-59
2023/06/09 01:01:44;;;;;;;14.63;13.83;;;17.50;36.90;;;;;;4973283;28;20430;-61
2023/06/09 01:04:12;;;;;;;15.33;14.43;;;17.40;37.30;;;;;;4973746;28;20476;-53
2023/06/09 01:07:00;;;;;;;15.17;14.37;;;17.50;37.60;;;;;;4973913;28;20553;-55
2023/06/09 01:09:48;;;;;;;15.40;14.50;;;17.60;36.80;;;;;;4973767;28;20430;-52
2023/06/09 01:12:13;;;;;;;14.43;13.63;;;17.70;36.20;;;;;;4973016;28;20414;-51
2023/06/09 01:14:56;;;;;;;15.83;14.83;;;17.80;35.70;;;;;;4972853;28;20429;-50
2023/06/09 01:17:23;;;;;;;14.67;13.77;;;17.80;35.50;;;;;;4973338;28;20183;-52
2023/06/09 01:19:53;;;;;;;13.40;12.70;;;17.90;35.60;;;;;;4973760;28;21045;-53
2023/06/09 01:22:37;;;;;;;14.50;13.70;;;17.90;34.90;;;;;;4973105;28;20480;-52
2023/06/09 01:25:34;;;;;;;14.67;13.87;;;17.90;34.80;;;;;;4973549;28;20426;-51
2023/06/09 01:28:16;;;;;;;14.30;13.50;;;17.90;34.80;;;;;;4973381;28;20426;-62
2023/06/09 01:30:43;;;;;;;14.10;13.23;;;18.00;35.00;;;;;;4973406;28;20906;-60
2023/06/09 01:33:12;;;;;;;14.90;14.10;;;18.00;34.80;;;;;;4972810;28;20418;-60
2023/06/09 01:35:40;;;;;;;13.80;12.83;;;18.00;35.00;;;;;;4973192;28;20418;-60
2023/06/09 01:38:07;;;;;;;14.03;13.33;;;18.00;35.20;;;;;;4973265;28;20418;-60
2023/06/09 01:40:33;;;;;;;14.53;13.73;;;18.00;34.90;;;;;;4972980;28;20453;-60
2023/06/09 01:43:02;;;;;;;14.20;13.50;;;18.10;34.80;;;;;;4972421;28;20541;-60
2023/06/09 01:45:27;;;;;;;15.50;14.60;;;18.10;34.70;;;;;;4972940;28;20418;-60
2023/06/09 01:47:53;;;;;;;14.43;13.73;;;18.00;34.80;;;;;;4973093;28;20454;-48
2023/06/09 01:50:41;;;;;;;14.97;14.07;;;18.10;34.90;;;;;;4974310;28;20210;-51
2023/06/09 01:53:16;;;;;;;14.93;14.13;;;18.00;34.90;;;;;;4972499;28;20436;-51
2023/06/09 01:55:50;;;;;;;15.60;14.60;;;18.10;34.80;;;;;;4970810;28;20935;-50
2023/06/09 01:58:31;;;;;;;16.17;15.17;;;17.80;35.30;;;;;;4968720;28;20480;-48
2023/06/09 02:00:58;;;;;;;15.63;14.83;;;17.40;37.00;;;;;;4968711;28;20449;-49
2023/06/09 02:03:27;;;;;;;15.90;15.10;;;17.20;37.80;;;;;;4968111;28;20470;-51
2023/06/09 02:05:54;;;;;;;16.17;15.23;;;17.00;37.90;;;;;;4968464;28;20418;-53
2023/06/09 02:08:21;;;;;;;15.80;14.90;;;16.90;38.80;;;;;;4965123;28;20926;-51
2023/06/09 02:10:47;;;;;;;16.47;15.37;;;16.80;39.00;;;;;;4969984;28;20422;-54
2023/06/09 02:13:19;;;;;;;16.70;15.60;;;16.70;38.80;;;;;;4972220;28;20429;-60
2023/06/09 02:15:46;;;;;;;15.90;15.00;;;16.70;39.00;;;;;;4972616;28;20424;-60
2023/06/09 02:18:13;;;;;;;15.97;15.10;;;16.90;39.20;;;;;;4972485;28;20421;-60
2023/06/09 02:20:43;;;;;;;15.43;14.60;;;17.00;38.20;;;;;;4972578;28;20510;-60
2023/06/09 02:23:10;;;;;;;16.47;15.57;;;17.20;37.80;;;;;;4971854;28;20594;-60
2023/06/09 02:25:36;;;;;;;16.10;15.00;;;17.30;38.00;;;;;;4972271;28;20785;-60
2023/06/09 02:28:04;;;;;;;15.17;14.27;;;17.40;38.00;;;;;;4972368;28;20518;-61
2023/06/09 02:30:30;;;;;;;15.40;14.50;;;17.50;37.60;;;;;;4972289;28;20961;-60
2023/06/09 02:32:58;;;;;;;16.10;15.20;;;17.60;37.10;;;;;;4973025;28;20414;-60
2023/06/09 02:35:24;;;;;;;16.50;15.33;;;17.60;36.70;;;;;;4972335;28;20414;-60
2023/06/09 02:37:49;;;;;;;16.20;15.10;;;17.70;36.70;;;;;;4972313;28;20561;-60
2023/06/09 02:40:15;;;;;;;16.20;15.33;;;17.60;36.50;;;;;;4972062;28;20441;-60
2023/06/09 02:42:41;;;;;;;16.20;15.20;;;17.60;36.30;;;;;;4971593;28;20171;-60
2023/06/09 02:45:08;;;;;;;16.30;15.43;;;17.70;35.90;;;;;;4972260;28;20187;-60
2023/06/09 02:47:33;;;;;;;15.97;15.23;;;17.70;35.60;;;;;;4972290;28;20182;-60
2023/06/09 02:49:59;;;;;;;16.80;15.90;;;17.70;35.90;;;;;;4972138;28;20825;-60
2023/06/09 02:52:28;;;;;;;17.00;16.07;;;17.70;35.70;;;;;;4971486;28;20175;-60
2023/06/09 02:54:54;;;;;;;16.17;15.27;;;17.70;36.00;;;;;;4976045;28;20272;-61
2023/06/09 02:57:20;;;;;;;18.33;17.23;;;17.70;36.00;;;;;;4983502;28;20510;-61
2023/06/09 02:59:46;;;;;;;16.63;15.73;;;17.70;36.10;;;;;;4985304;28;20421;-60
2023/06/09 03:02:12;;;;;;;16.47;15.47;;;17.70;36.50;;;;;;4983364;28;20434;-59
2023/06/09 03:04:40;;;;;;;16.93;16.03;;;17.70;36.30;;;;;;4982604;28;20237;-60
2023/06/09 03:07:09;;;;;;;17.93;16.93;;;17.70;35.90;;;;;;4988959;28;20186;-60
2023/06/09 03:09:35;;;;;;;16.30;15.50;;;17.70;35.80;;;;;;4983842;28;20433;-51
2023/06/09 03:12:01;;;;;;;16.80;15.77;;;17.70;36.00;;;;;;4978771;28;20504;-49
2023/06/09 03:14:27;;;;;;;18.47;17.37;;;17.70;36.10;;;;;;4982235;28;20734;-60
2023/06/09 03:16:53;;;;;;;16.03;15.03;;;17.60;36.00;;;;;;4988534;28;20437;-60
2023/06/09 03:19:20;;;;;;;16.37;15.40;;;17.60;36.00;;;;;;4979848;28;20442;-60
2023/06/09 03:21:46;;;;;;;17.00;15.90;;;17.60;36.00;;;;;;4974991;28;20934;-60
2023/06/09 03:24:12;;;;;;;16.80;16.00;;;17.60;36.20;;;;;;4981587;28;20475;-60
2023/06/09 03:26:37;;;;;;;16.53;15.63;;;17.60;36.20;;;;;;4982625;28;20280;-60
2023/06/09 03:29:03;;;;;;;17.17;16.27;;;17.60;36.40;;;;;;4985643;28;20178;-60
2023/06/09 03:31:29;;;;;;;16.80;15.90;;;17.60;36.20;;;;;;4984619;28;20476;-60
2023/06/09 03:33:56;;;;;;;17.47;16.33;;;17.60;36.00;;;;;;4983460;28;20213;-60
2023/06/09 03:36:23;;;;;;;16.27;15.37;;;17.70;35.90;;;;;;4983162;28;20178;-61
2023/06/09 03:38:49;;;;;;;16.27;15.37;;;17.60;35.90;;;;;;4987716;28;20811;-60
2023/06/09 03:41:15;;;;;;;16.97;15.97;;;17.70;35.70;;;;;;4985873;28;20437;-60
2023/06/09 03:43:40;;;;;;;16.53;15.63;;;17.60;35.80;;;;;;4985722;28;20205;-60
2023/06/09 03:46:06;;;;;;;16.00;15.20;;;17.60;35.90;;;;;;4988215;28;20181;-60
2023/06/09 03:48:32;;;;;;;16.53;15.73;;;17.60;35.80;;;;;;4988178;28;20280;-61
2023/06/09 03:50:57;;;;;;;15.27;14.47;;;17.60;35.90;;;;;;4987827;28;20174;-61
2023/06/09 03:53:23;;;;;;;15.80;14.90;;;17.60;36.00;;;;;;4989722;28;20182;-61
2023/06/09 03:55:49;;;;;;;18.07;17.07;;;17.50;36.10;;;;;;4987989;28;20194;-50
2023/06/09 03:58:14;;;;;;;15.80;14.93;;;17.60;36.40;;;;;;4988465;28;20593;-50
2023/06/09 04:00:42;;;;;;;18.23;17.23;;;17.60;36.50;;;;;;4987573;28;20476;-53
2023/06/09 04:03:08;;;;;;;17.10;16.13;;;17.60;36.40;;;;;;4987395;28;20553;-56
2023/06/09 04:05:34;;;;;;;17.33;16.33;;;17.50;36.40;;;;;;4988606;28;20425;-55
2023/06/09 04:08:00;;;;;;;16.77;15.87;;;17.50;36.50;;;;;;4988252;28;20425;-55
2023/06/09 04:10:25;;;;;;;17.00;16.00;;;17.50;36.20;;;;;;4987592;28;20473;-56
2023/06/09 04:12:51;;;;;;;18.07;17.17;;;17.50;36.10;;;;;;4988637;28;20182;-58
2023/06/09 04:15:18;;;;;;;16.97;16.07;;;17.60;36.00;;;;;;4990505;28;20240;-53
2023/06/09 04:17:43;;;;;;;18.80;17.60;;;17.50;36.20;;;;;;4988754;28;20181;-55
2023/06/09 04:20:10;;;;;;;17.80;16.70;;;17.50;36.20;;;;;;4988998;28;20492;-52
2023/06/09 04:22:35;;;;;;;17.37;16.27;;;17.60;36.20;;;;;;4987679;28;20170;-53
2023/06/09 04:25:02;;;;;;;17.73;16.73;;;17.60;36.40;;;;;;4989571;28;20469;-54
2023/06/09 04:27:29;;;;;;;18.73;17.63;;;17.50;36.40;;;;;;4989652;28;20225;-58
2023/06/09 04:29:54;;;;;;;18.60;17.60;;;17.60;36.60;;;;;;4988720;28;20833;-58
2023/06/09 04:32:21;;;;;;;19.13;17.93;;;17.50;36.00;;;;;;4987447;28;20413;-58
2023/06/09 04:34:48;;;;;;;18.90;17.90;;;17.30;37.10;;;;;;4970404;28;20689;-58
2023/06/09 04:37:14;;;;;;;18.53;17.43;;;17.00;38.40;;;;;;4988489;28;20421;-57
2023/06/09 04:39:45;;;;;;;18.07;17.00;;;16.80;39.90;;;;;;4993750;28;20424;-58
2023/06/09 04:42:13;;;;;;;18.77;17.77;;;16.60;40.50;;;;;;4992972;28;20476;-61
2023/06/09 04:44:39;;;;;;;20.07;18.90;;;16.50;41.30;;;;;;4993279;28;20824;-57
2023/06/09 04:47:05;;;;;;;18.83;17.80;;;16.40;41.30;;;;;;4985671;28;20425;-51
2023/06/09 04:49:31;;;;;;;18.37;17.37;;;16.40;41.90;;;;;;4986722;28;20603;-53
2023/06/09 04:51:58;;;;;;;18.60;17.40;;;16.50;41.90;;;;;;4985948;28;20500;-53
2023/06/09 04:54:25;;;;;;;18.63;17.53;;;16.60;41.50;;;;;;4993349;28;20421;-53
2023/06/09 04:56:57;;;;;;;17.73;16.73;;;16.70;41.40;;;;;;4990236;28;20933;-57
2023/06/09 04:59:24;;;;;;;18.93;17.70;;;16.90;40.80;;;;;;4985975;28;20417;-56
2023/06/09 05:01:52;;;;;;;17.53;16.53;;;16.90;39.90;;;;;;4985744;28;20504;-58
2023/06/09 05:04:18;;;;;;;18.57;17.27;;;17.00;40.00;;;;;;4984566;28;20504;-57
2023/06/09 05:06:43;;;;;;;19.67;18.57;;;17.20;40.10;;;;;;4988352;28;20456;-58
2023/06/09 05:09:09;;;;;;;18.87;17.77;;;17.30;39.20;;;;;;4966068;28;20188;-57
2023/06/09 05:11:36;;;;;;;18.57;17.47;;;17.30;39.40;;;;;;4977354;28;20261;-58
2023/06/09 05:14:02;;;;;;;18.43;17.43;;;17.40;38.70;;;;;;4987790;28;20207;-57
2023/06/09 05:16:28;;;;;;;19.80;18.60;;;17.50;38.60;;;;;;4986224;28;20807;-58
2023/06/09 05:18:57;;;;;;;18.97;17.70;;;17.50;37.40;;;;;;4975293;28;20442;-56
2023/06/09 05:21:25;;;;;;;19.60;18.40;;;17.50;38.10;;;;;;4966807;28;20558;-58
2023/06/09 05:23:51;;;;;;;18.37;17.37;;;17.60;38.20;;;;;;4974283;28;20468;-57
2023/06/09 05:26:17;;;;;;;20.30;19.20;;;17.50;36.60;;;;;;4986315;28;20529;-58
2023/06/09 05:28:43;;;;;;;20.17;18.73;;;17.60;37.50;;;;;;4987662;28;20914;-50
2023/06/09 05:31:09;;;;;;;21.00;19.80;;;17.70;37.80;;;;;;4985041;28;20171;-52
2023/06/09 05:33:36;;;;;;;19.97;18.83;;;17.70;37.20;;;;;;4988187;28;20932;-50
2023/06/09 05:36:02;;;;;;;20.57;19.37;;;17.80;36.80;;;;;;4969001;28;20194;-57
2023/06/09 05:38:27;;;;;;;19.03;17.67;;;17.80;36.20;;;;;;4971411;28;20414;-58
2023/06/09 05:40:53;;;;;;;19.20;18.10;;;17.90;36.00;;;;;;4986855;28;20194;-56
2023/06/09 05:43:19;;;;;;;18.80;17.60;;;17.90;35.60;;;;;;4987405;28;20209;-58
2023/06/09 05:45:44;;;;;;;18.03;17.13;;;17.90;35.70;;;;;;4988612;28;20178;-52
2023/06/09 05:48:10;;;;;;;20.20;19.10;;;17.80;36.00;;;;;;4989452;28;20417;-54
2023/06/09 05:50:37;;;;;;;20.13;19.03;;;17.90;36.10;;;;;;4987741;28;20185;-51
2023/06/09 05:53:03;;;;;;;18.90;17.90;;;18.00;35.00;;;;;;4989716;28;20174;-49
2023/06/09 05:55:29;;;;;;;20.00;18.77;;;17.90;35.40;;;;;;4988889;28;20949;-50
2023/06/09 05:57:55;;;;;;;19.47;18.23;;;17.90;35.90;;;;;;4988109;28;21167;-51
2023/06/09 06:00:22;;;;;;;18.97;17.77;;;17.90;36.40;;;;;;4987248;28;20684;-49
2023/06/09 06:02:47;;;;;;;18.73;17.43;;;18.10;36.30;;;;;;4988613;28;20508;-53
2023/06/09 06:05:13;;;;;;;18.23;17.07;;;18.20;35.90;;;;;;4989489;28;20520;-50
2023/06/09 06:07:39;;;;;;;18.20;17.00;;;18.30;35.50;;;;;;4976925;28;20187;-53
2023/06/09 06:10:06;;;;;;;18.27;17.10;;;18.30;34.50;;;;;;4983237;28;20448;-58
2023/06/09 06:12:34;;;;;;;18.30;17.17;;;18.30;34.70;;;;;;4992044;28;20213;-57
2023/06/09 06:15:00;;;;;;;18.77;17.67;;;18.30;35.50;;;;;;4991943;28;20500;-58
2023/06/09 06:17:26;;;;;;;17.67;16.73;;;18.30;35.20;;;;;;4988987;28;20504;-58
2023/06/09 06:19:51;;;;;;;18.40;17.33;;;18.40;34.50;;;;;;4990500;28;20174;-56
2023/06/09 06:22:17;;;;;;;19.53;17.93;;;18.50;34.30;;;;;;4989543;28;20181;-57
2023/06/09 06:24:43;;;;;;;18.27;17.17;;;18.60;34.00;;;;;;4990917;28;20308;-57
2023/06/09 06:27:08;;;;;;;19.87;18.67;;;18.60;34.50;;;;;;4990964;28;20401;-55
2023/06/09 06:29:38;;;;;;;18.40;17.30;;;18.70;34.40;;;;;;4977346;28;20186;-60
2023/06/09 06:32:05;;;;;;;20.08;18.88;;;18.70;34.60;;;;;;4971275;28;20476;-60
2023/06/09 06:34:31;;;;;;;21.40;20.07;;;18.80;34.70;;;;;;4969830;28;20270;-57
2023/06/09 06:36:56;;;;;;;20.47;19.20;;;18.80;34.40;;;;;;4970659;28;20540;-58
2023/06/09 06:39:22;;;;;;;20.40;19.20;;;18.80;33.80;;;;;;4979736;28;20233;-57
2023/06/09 06:41:48;;;;;;;20.10;18.90;;;18.80;33.60;;;;;;4991746;28;20676;-50
2023/06/09 06:44:14;;;;;;;18.90;17.80;;;18.80;34.00;;;;;;4986279;28;20215;-53
2023/06/09 06:46:40;;;;;;;20.03;18.77;;;18.90;33.00;;;;;;4990410;28;20643;-52
2023/06/09 06:49:06;;;;;;;18.93;17.90;;;18.80;33.10;;;;;;4982066;28;20469;-50
2023/06/09 06:51:32;;;;;;;19.60;18.03;;;18.80;33.00;;;;;;4971380;28;20561;-53
2023/06/09 06:53:57;;;;;;;17.63;16.70;;;18.90;32.40;;;;;;4972074;28;20186;-51
2023/06/09 06:56:25;;;;;;;16.87;15.97;;;19.00;32.90;;;;;;4990011;28;20546;-52
2023/06/09 06:58:51;;;;;;;17.60;16.50;;;19.10;32.60;;;;;;4989074;28;20669;-51
2023/06/09 07:01:20;;;;;;;16.13;15.13;;;19.20;33.00;;;;;;4987612;28;20504;-54
2023/06/09 07:03:46;;;;;;;17.93;16.83;;;19.20;32.50;;;;;;4991176;28;20465;-55
2023/06/09 07:06:12;;;;;;;19.60;17.90;;;19.30;32.20;;;;;;4991231;28;20452;-49
2023/06/09 07:08:38;;;;;;;19.03;17.60;;;19.40;31.70;;;;;;4990990;28;20437;-56
2023/06/09 07:11:04;;;;;;;15.93;15.10;;;19.50;31.20;;;;;;4989234;28;20425;-58
2023/06/09 07:13:29;;;;;;;17.93;16.53;;;19.60;29.70;;;;;;4988697;28;20281;-57
2023/06/09 07:15:55;;;;;;;17.10;16.03;;;19.70;29.80;;;;;;4975403;28;20186;-58
2023/06/09 07:18:21;;;;;;;16.80;15.60;;;19.80;29.80;;;;;;4970260;28;20182;-58
2023/06/09 07:20:48;;;;;;;15.43;14.43;;;19.70;29.60;;;;;;4968555;28;20186;-58
2023/06/09 07:23:14;;;;;;;15.43;14.50;;;19.80;28.90;;;;;;4974837;28;20671;-58
2023/06/09 07:25:39;;;;;;;16.30;15.10;;;19.80;28.50;;;;;;4987926;28;20429;-58
2023/06/09 07:28:05;;;;;;;14.60;13.90;;;19.90;28.00;;;;;;4994917;28;20544;-60
2023/06/09 07:30:31;;;;;;;15.70;14.80;;;19.90;28.10;;;;;;4994881;28;20193;-58
2023/06/09 07:32:56;;;;;;;14.23;13.43;;;20.00;27.60;;;;;;4992950;28;20654;-58
2023/06/09 07:35:23;;;;;;;14.20;13.20;;;20.00;27.80;;;;;;4974835;28;20185;-58
2023/06/09 07:37:50;;;;;;;14.57;13.77;;;20.10;28.00;;;;;;4975275;28;20229;-57
2023/06/09 07:40:15;;;;;;;14.30;13.53;;;20.20;28.20;;;;;;4982913;28;20444;-57
2023/06/09 07:42:41;;;;;;;14.00;13.10;;;20.20;26.70;;;;;;4990405;28;20977;-58
2023/06/09 07:45:07;;;;;;;14.53;13.80;;;20.40;27.00;;;;;;4990749;28;20214;-58
2023/06/09 07:47:33;;;;;;;13.53;12.83;;;20.40;27.50;;;;;;4993990;28;20190;-58
2023/06/09 07:49:59;;;;;;;13.03;12.40;;;20.40;27.20;;;;;;4987919;28;20784;-58
2023/06/09 07:52:25;;;;;;;14.00;13.20;;;20.50;26.30;;;;;;4994986;28;20170;-58
2023/06/09 07:54:51;;;;;;;14.30;13.50;;;20.80;25.70;;;;;;4993543;28;20182;-59
2023/06/09 07:57:16;;;;;;;15.20;14.20;;;20.90;26.10;;;;;;4989044;28;20432;-58
2023/06/09 07:59:42;;;;;;;13.57;12.77;;;20.90;25.80;;;;;;4994072;28;20189;-56
2023/06/09 08:02:08;;;;;;;15.43;14.53;;;21.10;24.70;;;;;;4993596;28;20181;-56
2023/06/09 08:04:34;;;;;;;14.23;13.50;;;21.20;24.90;;;;;;4993867;28;20256;-57
2023/06/09 08:06:59;;;;;;;13.33;12.73;;;21.20;25.10;;;;;;4994082;28;20417;-57
2023/06/09 08:09:26;;;;;;;15.33;14.43;;;21.20;24.50;;;;;;4993704;28;20189;-57
2023/06/09 08:11:52;;;;;;;14.97;13.93;;;21.30;24.70;;;;;;4993490;28;20332;-57
2023/06/09 08:14:18;;;;;;;13.63;12.93;;;21.40;24.90;;;;;;4993686;28;20429;-58
2023/06/09 08:16:44;;;;;;;13.63;12.90;;;21.40;23.60;;;;;;4993746;28;20837;-57
2023/06/09 08:19:10;;;;;;;14.10;13.30;;;21.50;23.50;;;;;;4993967;28;20654;-58
2023/06/09 08:21:43;;;;;;;13.20;12.50;;;21.50;24.20;;;;;;4994102;28;20519;-57
2023/06/09 08:24:12;;;;;;;13.83;13.13;;;21.60;22.80;;;;;;4993586;28;20505;-58
2023/06/09 08:26:40;;;;;;;15.87;14.97;;;21.60;24.00;;;;;;4993596;28;20425;-58
2023/06/09 08:29:06;;;;;;;13.50;12.80;;;21.70;23.80;;;;;;4993554;28;20797;-55
2023/06/09 08:31:33;;;;;;;14.30;13.60;;;21.70;24.40;;;;;;4992803;28;20420;-50
2023/06/09 08:33:59;;;;;;;15.27;14.40;;;21.70;25.00;;;;;;4993511;28;20436;-53
2023/06/09 08:36:25;;;;;;;17.70;16.70;;;21.70;24.20;;;;;;4993360;28;20537;-53
2023/06/09 08:38:50;;;;;;;15.30;14.40;;;21.70;24.10;;;;;;4993576;28;20511;-53
2023/06/09 08:41:18;;;;;;;14.13;13.40;;;21.70;23.80;;;;;;4982478;28;20213;-52
2023/06/09 08:43:45;;;;;;;13.13;12.53;;;21.90;23.00;;;;;;4978150;28;20218;-51
2023/06/09 08:46:11;;;;;;;14.17;13.50;;;22.00;23.00;;;;;;4997130;28;20479;-54
2023/06/09 08:48:59;;;;;;;14.30;13.40;;;21.90;23.00;;;;;;4993238;28;20425;-53
2023/06/09 08:51:25;;;;;;;12.80;12.20;;;21.90;23.00;;;;;;4992620;28;20436;-53
2023/06/09 08:53:52;;;;;;;11.33;10.60;;;22.00;23.00;;;;;;4993324;28;20534;-54
2023/06/09 08:56:19;;;;;;;13.47;12.77;;;22.10;23.10;;;;;;4986056;28;20935;-53
2023/06/09 08:58:46;;;;;;;13.00;12.40;;;22.20;22.50;;;;;;4986595;28;20436;-54
2023/06/09 09:01:13;;;;;;;12.23;11.60;;;22.60;20.90;;;;;;4990311;28;20939;-55
2023/06/09 09:03:39;;;;;;;13.30;12.40;;;22.70;20.50;;;;;;4980224;28;20470;-52
2023/06/09 09:06:05;;;;;;;15.20;14.40;;;22.70;20.20;;;;;;4972498;28;20513;-58
2023/06/09 09:08:30;;;;;;;12.63;12.03;;;22.80;20.60;;;;;;4985441;28;20186;-58
2023/06/09 09:10:56;;;;;;;12.17;11.50;;;22.80;20.50;;;;;;4992412;28;20223;-58
2023/06/09 09:13:31;;;;;;;13.07;12.37;;;22.70;20.20;;;;;;4991933;28;20638;-60
2023/06/09 09:15:59;;;;;;;12.50;11.77;;;22.70;21.40;;;;;;4992905;28;20308;-59
2023/06/09 09:18:35;;;;;;;13.03;12.20;;;22.90;20.70;;;;;;4992511;28;20459;-58
2023/06/09 09:21:01;;;;;;;13.47;12.77;;;23.20;20.20;;;;;;4992432;28;20519;-60
2023/06/09 09:23:34;;;;;;;13.23;12.63;;;23.40;19.50;;;;;;4989924;28;20461;-60
2023/06/09 09:26:02;;;;;;;13.67;13.07;;;23.30;19.70;;;;;;4992514;28;20421;-60
2023/06/09 09:28:38;;;;;;;12.77;12.17;;;23.20;19.80;;;;;;4992347;28;20512;-59
2023/06/09 09:31:07;;;;;;;13.80;13.03;;;23.10;20.00;;;;;;4992382;28;20417;-59
2023/06/09 09:33:36;;;;;;;13.20;12.60;;;23.10;20.50;;;;;;4990890;28;20436;-58
2023/06/09 09:36:03;;;;;;;14.67;13.67;;;23.10;20.40;;;;;;4991714;28;20831;-54
2023/06/09 09:38:31;;;;;;;12.90;12.00;;;23.00;20.10;;;;;;4991907;28;20425;-53
2023/06/09 09:40:59;;;;;;;12.67;12.00;;;23.00;20.10;;;;;;4991876;28;20441;-52
2023/06/09 09:43:26;;;;;;;12.33;11.73;;;23.40;19.70;;;;;;4991381;28;20461;-55
2023/06/09 09:45:53;;;;;;;11.67;11.07;;;23.50;18.70;;;;;;4992184;28;20866;-55
2023/06/09 09:48:22;;;;;;;12.00;11.50;;;23.70;19.40;;;;;;4991843;28;20425;-55
2023/06/09 09:50:51;;;;;;;12.50;11.83;;;23.80;19.20;;;;;;4991956;28;20920;-52
2023/06/09 09:53:20;;;;;;;13.13;11.90;;;24.20;17.90;;;;;;4991028;28;20472;-55
2023/06/09 09:55:47;;;;;;;13.30;12.60;;;24.50;17.50;;;;;;4991947;28;20417;-55
2023/06/09 09:58:17;;;;;;;13.60;12.80;;;24.70;17.00;;;;;;4986845;28;20464;-54
2023/06/09 10:00:44;;;;;;;13.20;12.50;;;24.80;16.30;;;;;;4991791;28;20429;-53
2023/06/09 10:03:15;;;;;;;12.43;11.80;;;24.70;17.70;;;;;;4990852;28;20495;-54
2023/06/09 10:05:46;;;;;;;11.87;11.33;;;24.70;17.20;;;;;;4991518;28;20431;-52
2023/06/09 10:08:42;;;;;;;13.43;12.63;;;24.70;16.30;;;;;;4991603;28;20449;-54
2023/06/09 10:11:09;;;;;;;11.53;11.03;;;24.80;17.10;;;;;;4982734;28;20422;-53
2023/06/09 10:13:35;;;;;;;11.80;11.30;;;25.10;15.30;;;;;;4991221;28;20945;-53
2023/06/09 10:16:01;;;;;;;11.57;10.97;;;25.20;15.10;;;;;;4991594;28;20468;-51
2023/06/09 10:18:27;;;;;;;12.40;11.80;;;25.40;15.20;;;;;;4992777;28;20479;-52
2023/06/09 10:20:56;;;;;;;12.50;11.77;;;25.50;14.90;;;;;;4991613;28;20957;-50
2023/06/09 10:23:23;;;;;;;11.97;11.37;;;25.50;15.10;;;;;;4990542;28;20212;-50
2023/06/09 10:25:49;;;;;;;12.33;11.53;;;25.50;15.90;;;;;;4991236;28;20906;-53
2023/06/09 10:28:16;;;;;;;11.60;11.00;;;25.60;15.40;;;;;;4991176;28;20449;-55
2023/06/09 10:30:43;;;;;;;12.20;11.70;;;25.70;12.70;;;;;;4991319;28;20496;-54
2023/06/09 10:33:16;;;;;;;11.00;10.30;;;25.80;11.80;;;;;;4990676;28;20453;-53
2023/06/09 10:35:44;;;;;;;10.57;10.13;;;26.00;10.80;;;;;;4991417;28;20520;-55
2023/06/09 10:38:30;;;;;;;10.20;9.80;;;26.20;10.00;;;;;;4991195;28;20432;-55
2023/06/09 10:41:13;;;;;;;9.50;9.13;;;26.40;9.70;;;;;;4991145;28;20476;-52
2023/06/09 10:43:47;;;;;;;10.33;9.93;;;26.40;9.60;;;;;;4979191;28;20481;-54
2023/06/09 10:46:13;;;;;;;9.90;9.50;;;26.40;9.40;;;;;;4971765;28;20464;-51
2023/06/09 10:48:50;;;;;;;10.67;10.17;;;26.40;8.70;;;;;;4971657;28;20430;-53
2023/06/09 10:51:28;;;;;;;10.30;9.87;;;26.40;9.10;;;;;;4971049;28;20607;-57
2023/06/09 10:54:12;;;;;;;10.67;10.27;;;26.40;10.10;;;;;;4980534;28;20795;-53
2023/06/09 10:56:42;;;;;;;12.20;11.60;;;26.40;8.80;;;;;;4990948;28;20432;-50
2023/06/09 10:59:26;;;;;;;13.90;12.90;;;26.30;9.40;;;;;;4983396;28;20445;-50
2023/06/09 11:02:01;;;;;;;9.90;9.50;;;26.30;10.00;;;;;;4984760;28;20527;-53
2023/06/09 11:04:41;;;;;;;10.23;9.73;;;26.30;10.20;;;;;;4988111;28;20976;-53
2023/06/09 11:07:14;;;;;;;10.83;10.30;;;26.30;10.20;;;;;;4989016;28;20456;-53
2023/06/09 11:09:47;;;;;;;10.60;10.20;;;26.30;10.10;;;;;;4988909;28;20917;-54
2023/06/09 11:12:27;;;;;;;10.43;9.93;;;26.40;9.70;;;;;;4987796;28;20479;-50
2023/06/09 11:14:58;;;;;;;9.73;9.33;;;26.50;9.40;;;;;;4988530;28;20456;-52
2023/06/09 11:17:26;;;;;;;10.53;10.07;;;26.60;9.30;;;;;;4987883;28;20425;-53
2023/06/09 11:20:09;;;;;;;9.73;9.33;;;26.80;8.50;;;;;;4972997;28;20492;-53
2023/06/09 11:22:41;;;;;;;9.70;9.30;;;26.70;9.00;;;;;;4988038;28;20417;-51
2023/06/09 11:25:08;;;;;;;10.43;9.90;;;26.70;8.90;;;;;;4989917;28;20456;-51
2023/06/09 11:27:34;;;;;;;10.17;9.57;;;26.60;8.90;;;;;;4987655;28;20432;-54
2023/06/09 11:30:20;;;;;;;10.27;9.77;;;26.60;9.60;;;;;;4972836;28;20434;-54
2023/06/09 11:32:49;;;;;;;12.03;11.53;;;26.40;9.40;;;;;;4954123;28;20472;-54
2023/06/09 11:35:30;;;;;;;10.83;10.20;;;26.40;10.00;;;;;;4968898;28;20461;-55
2023/06/09 11:38:07;;;;;;;9.93;9.53;;;26.30;10.50;;;;;;4986009;28;20925;-58
2023/06/09 11:40:54;;;;;;;10.80;10.20;;;26.10;10.00;;;;;;4981895;28;20479;-58
2023/06/09 11:43:22;;;;;;;10.97;10.47;;;26.20;9.80;;;;;;4983933;28;20559;-59
2023/06/09 11:45:48;;;;;;;11.17;10.53;;;26.30;10.20;;;;;;4967445;28;20426;-58
2023/06/09 11:48:15;;;;;;;10.30;9.90;;;26.40;9.40;;;;;;4968385;28;20458;-58
2023/06/09 11:50:47;;;;;;;11.30;10.80;;;26.40;9.10;;;;;;4967924;28;20524;-58
2023/06/09 11:53:17;;;;;;;10.93;10.53;;;26.40;9.10;;;;;;4965366;28;20814;-59
2023/06/09 11:55:43;;;;;;;9.67;9.27;;;26.40;9.40;;;;;;4982957;28;20456;-58
2023/06/09 11:58:12;;;;;;;10.77;10.27;;;26.30;9.50;;;;;;4983908;28;20811;-58
2023/06/09 12:00:41;;;;;;;10.30;9.70;;;26.10;10.50;;;;;;4988233;28;20428;-59
2023/06/09 12:03:07;;;;;;;11.47;10.90;;;26.00;10.80;;;;;;4992104;28;20436;-57
2023/06/09 12:05:33;;;;;;;11.40;10.80;;;25.80;11.50;;;;;;4971694;28;20456;-58
2023/06/09 12:08:00;;;;;;;10.40;9.90;;;25.70;12.40;;;;;;4987463;28;20425;-58
2023/06/09 12:10:27;;;;;;;10.77;10.27;;;25.60;13.00;;;;;;4972398;28;20437;-58
2023/06/09 12:13:00;;;;;;;10.53;9.97;;;25.70;12.60;;;;;;4970471;28;20519;-58
2023/06/09 12:15:26;;;;;;;10.00;9.60;;;25.80;12.80;;;;;;4981976;28;20437;-58
2023/06/09 12:18:02;;;;;;;10.20;9.80;;;25.90;12.50;;;;;;4989265;28;20421;-58
2023/06/09 12:20:29;;;;;;;10.47;9.97;;;25.90;12.50;;;;;;4974768;28;20438;-59
2023/06/09 12:23:01;;;;;;;10.37;9.87;;;25.80;12.20;;;;;;4988629;28;20417;-58
2023/06/09 12:25:32;;;;;;;10.33;9.73;;;25.70;12.40;;;;;;4989438;28;20464;-59
2023/06/09 12:28:12;;;;;;;10.90;10.40;;;25.60;12.70;;;;;;4993694;28;20484;-59
2023/06/09 12:30:47;;;;;;;11.50;11.00;;;25.50;12.90;;;;;;4991816;28;20440;-60
2023/06/09 12:33:16;;;;;;;10.40;9.90;;;25.50;12.60;;;;;;5009090;28;20424;-59